Terminal Aerodrome Forecast
Issued by NWS

Home | Current Version | Previous Version | Text Only | Print | Product List | Glossary On
Versions: 1 2 3 4 5 6 7 8 9 10 11 12 13 14 15 16
000
FTUS44 KEPZ 271135
TAFTCS
TAF
KTCS 271135Z 2712/2812 28007KT P6SM VCSH SCT080 BKN120
     FM271400 15006KT P6SM SCT120 BKN250
     FM272000 21009G17KT P6SM VCTS SCT080CB
     FM280000 25011G18KT P6SM SCT100
     FM280400 27008KT P6SM FEW100=

USA.gov is the U.S. government's official web portal to all federal, state and local government web resources and services.